KCNK

Blosser Municipal Airport

Concordia, Kansas, USA
METAR KCNK 182255Z AUTO 16005KT 10SM CLR 29/19 A2997 RMK AO2 SLP135 T02890194
Observed Flight Rules
Aug-18 @ 22:55 UTC (51 minutes ago) Visual Flight Rules
Wind Visibility Clouds
160° at 5 knots 10 miles
  • Clear skies
Temperatures Readings
Current 29°C / 84°F
Dewpoint 19°C / 66°F
Humidity 55%
Altimeter 29.97" Hg
Pressure 1013.5 hPa
Elevation 447
METAR KCNK 182255Z AUTO 16005KT 10SM CLR 29/19 A2997 RMK AO2 SLP135 T02890194
Observed Flight Rules
Aug-18 @ 22:55 UTC
(51 minutes ago)
VFR
Wind Visibility
160° at 5 knots 10 miles
Clouds
  • Clear skies
Temperature Dewpoint
29°C / 84°F 19°C / 66°F
Humidity Altimeter Pressure
55% 29.97" Hg 1013.5 hPa